Time;durP1;ratioP1;P1;durP2;ratioP2;P2;SDS_P1;SDS_P2;PMS_P1;PMS_P2;Temp;Humidity;BMP_temperature;BMP_pressure;BME280_temperature;BME280_humidity;BME280_pressure;Samples;Min_cycle;Max_cycle;Signal;HPM_P1;HPM_P2
2022/07/07 00:00:07;;;;;;;6.90;2.13;;;16.60;99.90;;;;;;5119283;28;20198;-89
2022/07/07 00:02:33;;;;;;;3.50;2.00;;;16.70;99.90;;;;;;5119551;28;20276;-89
2022/07/07 00:04:59;;;;;;;3.73;2.20;;;;;;;;;;5118536;28;20171;-89
2022/07/07 00:07:25;;;;;;;3.73;1.70;;;;;;;;;;5118851;28;20218;-89
2022/07/07 00:09:51;;;;;;;4.70;1.90;;;16.50;99.90;;;;;;5119721;28;20172;-89
2022/07/07 00:12:17;;;;;;;5.63;2.00;;;16.60;99.90;;;;;;5119147;28;20733;-89
2022/07/07 00:14:43;;;;;;;4.97;1.97;;;;;;;;;;5119165;28;20534;-89
2022/07/07 00:17:10;;;;;;;4.17;1.87;;;;;;;;;;5119460;28;20183;-89
2022/07/07 00:19:36;;;;;;;4.13;2.00;;;;;;;;;;5118761;28;20545;-89
2022/07/07 00:22:02;;;;;;;4.57;2.10;;;;;;;;;;5119828;28;20306;-88
2022/07/07 00:24:28;;;;;;;2.23;1.80;;;;;;;;;;5123274;28;20179;-89
2022/07/07 00:26:54;;;;;;;2.93;2.20;;;;;;;;;;5119180;28;20260;-89
2022/07/07 00:29:21;;;;;;;2.77;2.10;;;;;;;;;;5118703;28;20176;-89
2022/07/07 00:31:47;;;;;;;5.03;2.30;;;;;;;;;;5118773;28;20203;-89
2022/07/07 00:34:13;;;;;;;3.30;1.90;;;;;;;;;;5119072;28;20178;-88
2022/07/07 00:36:39;;;;;;;2.90;2.27;;;16.40;99.90;;;;;;5119133;28;20190;-88
2022/07/07 00:39:06;;;;;;;2.17;1.97;;;;;;;;;;5119865;28;20198;-88
2022/07/07 00:41:33;;;;;;;6.30;2.10;;;16.20;99.90;;;;;;5119290;28;20209;-88
2022/07/07 00:43:59;;;;;;;2.77;2.07;;;;;;;;;;5119376;28;20201;-89
2022/07/07 00:46:26;;;;;;;4.77;2.30;;;16.20;99.90;;;;;;5118331;28;20229;-89
2022/07/07 00:48:52;;;;;;;3.40;1.80;;;;;;;;;;5118875;28;20175;-89
2022/07/07 00:51:18;;;;;;;3.47;2.30;;;;;;;;;;5118631;28;20179;-89
2022/07/07 00:53:45;;;;;;;2.77;2.07;;;;;;;;;;5118962;28;20183;-88
2022/07/07 00:56:11;;;;;;;3.63;2.20;;;;;;;;;;5118489;28;20187;-89
2022/07/07 00:58:37;;;;;;;4.47;2.00;;;;;;;;;;5118448;28;20187;-89
2022/07/07 01:01:04;;;;;;;4.77;2.27;;;;;;;;;;5118225;28;20248;-89
2022/07/07 01:03:30;;;;;;;5.10;2.40;;;;;;;;;;5118750;28;20180;-89
2022/07/07 01:05:58;;;;;;;6.63;2.50;;;;;;;;;;5118823;28;20180;-89
2022/07/07 01:08:24;;;;;;;5.03;2.60;;;;;;;;;;5119644;28;20647;-89
2022/07/07 01:10:49;;;;;;;2.87;2.57;;;15.80;99.90;;;;;;5123777;28;20655;-89
2022/07/07 01:13:15;;;;;;;4.43;2.07;;;;;;;;;;5136986;28;20263;-88
2022/07/07 01:15:42;;;;;;;5.63;2.63;;;;;;;;;;5117389;28;20266;-89
2022/07/07 01:18:08;;;;;;;3.63;2.50;;;;;;;;;;5119828;28;20172;-89
2022/07/07 01:20:34;;;;;;;4.27;2.50;;;15.60;99.90;;;;;;5117293;28;20196;-88
2022/07/07 01:23:01;;;;;;;4.30;2.20;;;;;;;;;;5115994;28;20195;-89
2022/07/07 01:25:26;;;;;;;5.23;2.50;;;15.60;99.90;;;;;;5115861;28;20629;-89
2022/07/07 01:27:52;;;;;;;2.47;2.27;;;;;;;;;;5115953;28;20224;-89
2022/07/07 01:30:19;;;;;;;3.67;2.47;;;;;;;;;;5115637;28;20553;-89
2022/07/07 01:32:46;;;;;;;5.03;2.50;;;;;;;;;;5115537;28;20282;-89
2022/07/07 01:35:12;;;;;;;4.43;2.83;;;;;;;;;;5115444;28;20171;-89
2022/07/07 01:37:38;;;;;;;3.80;2.53;;;;;;;;;;5114987;28;20324;-89
2022/07/07 01:40:05;;;;;;;3.53;2.40;;;15.30;99.90;;;;;;5115419;28;20168;-89
2022/07/07 01:42:31;;;;;;;3.80;2.23;;;;;;;;;;5115555;28;20286;-89
2022/07/07 01:44:56;;;;;;;3.97;2.43;;;15.20;99.90;;;;;;5115402;28;20270;-89
2022/07/07 01:47:24;;;;;;;4.97;2.17;;;15.10;99.90;;;;;;5115304;28;20215;-89
2022/07/07 01:49:50;;;;;;;4.30;2.30;;;;;;;;;;5115194;28;20182;-90
2022/07/07 01:52:16;;;;;;;4.33;2.37;;;;;;;;;;5115101;28;20195;-89
2022/07/07 01:54:43;;;;;;;3.30;2.20;;;14.90;99.90;;;;;;5116096;28;20232;-89
2022/07/07 01:57:09;;;;;;;12.10;2.30;;;;;;;;;;5115711;28;20183;-88
2022/07/07 01:59:36;;;;;;;3.07;2.30;;;14.60;99.90;;;;;;5114995;28;20175;-89
2022/07/07 02:02:02;;;;;;;4.53;2.40;;;14.90;99.90;;;;;;5115055;28;20574;-89
2022/07/07 02:04:28;;;;;;;3.17;2.50;;;;;;;;;;5115693;28;20613;-89
2022/07/07 02:06:55;;;;;;;6.03;2.23;;;14.80;99.90;;;;;;5115611;28;20228;-89
2022/07/07 02:09:21;;;;;;;5.73;2.20;;;;;;;;;;5115480;28;20175;-89
2022/07/07 02:11:47;;;;;;;4.03;2.43;;;;;;;;;;5115434;28;20227;-90
2022/07/07 02:14:13;;;;;;;3.00;2.30;;;14.60;99.90;;;;;;5118938;28;20183;-89
2022/07/07 02:16:39;;;;;;;2.70;2.30;;;;;;;;;;5116438;28;20270;-89
2022/07/07 02:19:06;;;;;;;7.93;2.30;;;14.80;99.90;;;;;;5115883;28;20266;-89
2022/07/07 02:21:32;;;;;;;5.63;2.40;;;;;;;;;;5115988;28;20268;-89
2022/07/07 02:23:59;;;;;;;3.77;2.23;;;;;;;;;;5118335;28;20176;-89
2022/07/07 02:26:25;;;;;;;3.87;2.10;;;;;;;;;;5118513;28;20171;-89
2022/07/07 02:28:51;;;;;;;2.47;2.23;;;;;;;;;;5115900;28;20176;-89
2022/07/07 02:31:17;;;;;;;2.40;2.10;;;;;;;;;;5115920;28;20656;-90
2022/07/07 02:33:44;;;;;;;3.47;2.80;;;;;;;;;;5115693;28;20179;-89
2022/07/07 02:36:10;;;;;;;3.17;2.50;;;;;;;;;;5115729;28;20180;-89
2022/07/07 02:38:37;;;;;;;4.77;2.70;;;14.60;99.90;;;;;;5115896;28;20206;-89
2022/07/07 02:41:03;;;;;;;3.80;2.57;;;;;;;;;;5122195;28;20208;-89
2022/07/07 02:43:30;;;;;;;2.87;2.40;;;14.60;99.90;;;;;;5120039;28;20197;-89
2022/07/07 02:45:55;;;;;;;3.33;2.77;;;14.70;99.90;;;;;;5140578;28;20180;-92
2022/07/07 02:48:23;;;;;;;3.00;2.30;;;14.60;99.90;;;;;;5143250;28;20179;-92
2022/07/07 02:50:50;;;;;;;2.70;1.80;;;14.60;99.90;;;;;;5126112;28;20183;-89
2022/07/07 02:53:19;;;;;;;4.63;2.10;;;14.60;99.90;;;;;;5119728;28;20191;-89
2022/07/07 02:55:45;;;;;;;5.80;2.37;;;14.50;99.90;;;;;;5119697;28;20629;-89
2022/07/07 02:58:12;;;;;;;5.90;2.23;;;14.50;99.90;;;;;;5118864;28;20186;-88
2022/07/07 03:00:38;;;;;;;4.00;2.27;;;;;;;;;;5119107;28;20206;-89
2022/07/07 03:03:07;;;;;;;3.77;2.27;;;14.60;99.90;;;;;;5119405;28;20193;-89
2022/07/07 03:05:34;;;;;;;3.40;2.40;;;;;;;;;;5120808;28;20178;-89
2022/07/07 03:08:00;;;;;;;2.97;2.23;;;14.60;99.90;;;;;;5119459;28;20182;-89
2022/07/07 03:10:26;;;;;;;3.17;2.33;;;14.50;99.90;;;;;;5121314;28;20182;-88
2022/07/07 03:12:52;;;;;;;7.73;2.53;;;;;;;;;;5119285;28;20727;-89
2022/07/07 03:15:18;;;;;;;5.57;2.20;;;;;;;;;;5119175;28;20190;-88
2022/07/07 03:17:46;;;;;;;4.80;2.00;;;14.50;99.90;;;;;;5119969;28;20203;-89
2022/07/07 03:20:13;;;;;;;7.00;2.53;;;14.50;99.90;;;;;;5119765;28;20182;-89
2022/07/07 03:22:40;;;;;;;6.27;2.20;;;;;;;;;;5120125;28;20195;-89
2022/07/07 03:25:06;;;;;;;5.13;1.80;;;14.50;99.90;;;;;;5120709;28;20184;-88
2022/07/07 03:27:33;;;;;;;5.47;2.30;;;14.50;99.90;;;;;;5118731;28;20180;-89
2022/07/07 03:29:59;;;;;;;4.43;2.00;;;14.50;99.90;;;;;;5119230;28;20584;-89
2022/07/07 03:32:25;;;;;;;3.07;1.90;;;14.50;99.90;;;;;;5119974;28;20556;-89
2022/07/07 03:34:51;;;;;;;4.70;2.10;;;;;;;;;;5119525;28;20179;-89
2022/07/07 03:37:17;;;;;;;8.37;2.13;;;;;;;;;;5118576;28;20511;-89
2022/07/07 03:39:43;;;;;;;2.00;1.80;;;14.70;99.90;;;;;;5119443;28;20188;-88
2022/07/07 03:42:09;;;;;;;3.90;2.20;;;;;;;;;;5119080;28;20620;-89
2022/07/07 03:44:35;;;;;;;1.90;1.63;;;14.50;99.90;;;;;;5119030;28;20202;-89
2022/07/07 03:47:01;;;;;;;3.20;2.20;;;;;;;;;;5119076;28;20172;-88
2022/07/07 03:49:27;;;;;;;4.07;2.10;;;14.60;99.90;;;;;;5119433;28;20195;-89
2022/07/07 03:51:53;;;;;;;3.33;2.23;;;14.50;99.90;;;;;;5118953;28;20203;-89
2022/07/07 03:54:19;;;;;;;4.63;2.20;;;;;;;;;;5118042;28;20237;-89
2022/07/07 03:56:45;;;;;;;4.07;1.90;;;;;;;;;;5119812;28;20188;-89
2022/07/07 03:59:11;;;;;;;2.97;2.03;;;14.50;99.90;;;;;;5120553;28;20182;-88
2022/07/07 04:01:37;;;;;;;4.53;2.00;;;;;;;;;;5120862;28;20219;-89
2022/07/07 04:04:06;;;;;;;2.80;2.07;;;14.40;99.90;;;;;;5120672;28;20633;-89
2022/07/07 04:06:32;;;;;;;3.17;1.87;;;14.60;99.90;;;;;;5122342;28;20172;-88
2022/07/07 04:08:58;;;;;;;5.20;2.00;;;14.60;99.90;;;;;;5121037;28;20284;-89
2022/07/07 04:11:24;;;;;;;2.53;1.93;;;;;;;;;;5120860;28;20184;-89
2022/07/07 04:13:50;;;;;;;3.07;1.83;;;14.80;99.90;;;;;;5120883;28;20202;-88
2022/07/07 04:16:16;;;;;;;4.23;2.13;;;;;;;;;;5121520;28;20188;-88
2022/07/07 04:18:42;;;;;;;2.87;1.93;;;14.70;99.90;;;;;;5122216;28;20180;-88
2022/07/07 04:21:08;;;;;;;4.50;2.10;;;;;;;;;;5135071;28;20220;-89
2022/07/07 04:23:33;;;;;;;4.90;2.00;;;14.80;99.90;;;;;;5141427;28;20163;-92
2022/07/07 04:26:00;;;;;;;4.17;1.73;;;;;;;;;;5130284;28;20286;-89
2022/07/07 04:28:26;;;;;;;4.10;1.90;;;;;;;;;;5119759;28;20175;-88
2022/07/07 04:30:51;;;;;;;5.20;2.10;;;14.70;99.90;;;;;;5120072;28;20563;-88
2022/07/07 04:33:18;;;;;;;4.83;1.90;;;;;;;;;;5119264;28;20207;-88
2022/07/07 04:35:43;;;;;;;2.60;1.87;;;14.60;99.90;;;;;;5118831;28;20195;-88
2022/07/07 04:38:09;;;;;;;4.53;2.00;;;;;;;;;;5118956;28;20213;-88
2022/07/07 04:40:36;;;;;;;3.90;1.80;;;14.90;99.90;;;;;;5118941;28;20235;-88
2022/07/07 04:43:02;;;;;;;3.67;1.87;;;;;;;;;;5118728;28;20210;-88
2022/07/07 04:45:28;;;;;;;3.33;2.27;;;14.90;99.90;;;;;;5118808;28;20176;-88
2022/07/07 04:47:54;;;;;;;2.63;1.80;;;;;;;;;;5119075;28;20184;-88
2022/07/07 04:50:20;;;;;;;5.50;2.00;;;14.80;99.90;;;;;;5118692;28;20625;-88
2022/07/07 04:52:46;;;;;;;4.47;1.80;;;;;;;;;;5118425;28;20232;-88
2022/07/07 04:55:12;;;;;;;3.13;2.03;;;;;;;;;;5118099;28;20176;-88
2022/07/07 04:57:37;;;;;;;4.87;2.40;;;15.10;99.90;;;;;;5117549;28;20263;-87
2022/07/07 05:00:04;;;;;;;6.00;1.80;;;14.80;99.90;;;;;;5118241;28;20264;-87
2022/07/07 05:02:29;;;;;;;5.40;2.13;;;15.20;99.90;;;;;;5118225;28;20301;-88
2022/07/07 05:04:56;;;;;;;4.07;1.97;;;;;;;;;;5119432;28;20228;-88
2022/07/07 05:07:22;;;;;;;5.40;2.00;;;;;;;;;;5118660;28;20176;-88
2022/07/07 05:09:48;;;;;;;4.13;2.37;;;14.90;99.90;;;;;;5117811;28;20176;-88
2022/07/07 05:12:14;;;;;;;5.10;2.40;;;14.90;99.90;;;;;;5119147;28;20195;-88
2022/07/07 05:14:41;;;;;;;9.50;2.03;;;;;;;;;;5118308;28;20199;-88
2022/07/07 05:17:07;;;;;;;3.30;1.83;;;;;;;;;;5117894;28;20175;-88
2022/07/07 05:19:33;;;;;;;2.67;1.83;;;;;;;;;;5119861;28;20179;-87
2022/07/07 05:21:59;;;;;;;3.47;1.53;;;15.00;99.90;;;;;;5118115;28;20211;-87
2022/07/07 05:24:25;;;;;;;3.20;1.70;;;;;;;;;;5118928;28;20712;-88
2022/07/07 05:26:50;;;;;;;3.97;2.17;;;15.00;99.90;;;;;;5119495;28;20182;-88
2022/07/07 05:29:16;;;;;;;2.73;1.70;;;;;;;;;;5118350;28;20179;-88
2022/07/07 05:31:42;;;;;;;3.13;1.60;;;15.20;99.90;;;;;;5118676;28;20196;-88
2022/07/07 05:34:08;;;;;;;2.70;1.73;;;;;;;;;;5120184;28;20183;-88
2022/07/07 05:36:35;;;;;;;2.60;1.83;;;;;;;;;;5118554;28;20179;-88
2022/07/07 05:39:00;;;;;;;1.90;1.53;;;15.40;99.90;;;;;;5119541;28;20195;-88
2022/07/07 05:41:27;;;;;;;3.67;1.70;;;;;;;;;;5119463;28;20236;-88
2022/07/07 05:43:54;;;;;;;3.67;1.73;;;;;;;;;;5118760;28;20668;-86
2022/07/07 05:46:20;;;;;;;3.63;1.80;;;15.40;99.90;;;;;;5122202;28;20633;-87
2022/07/07 05:48:46;;;;;;;2.73;1.43;;;;;;;;;;5121713;28;20187;-87
2022/07/07 05:51:12;;;;;;;2.20;1.30;;;15.40;99.90;;;;;;5122349;28;20179;-86
2022/07/07 05:53:38;;;;;;;2.23;1.50;;;;;;;;;;5123234;28;20183;-87
2022/07/07 05:56:04;;;;;;;3.10;1.57;;;;;;;;;;5130766;28;20189;-86
2022/07/07 05:58:30;;;;;;;5.10;1.60;;;15.30;99.90;;;;;;5138177;28;20180;-86
2022/07/07 06:00:56;;;;;;;2.43;1.50;;;15.40;99.90;;;;;;5126150;28;20199;-87
2022/07/07 06:03:22;;;;;;;2.13;1.30;;;;;;;;;;5119911;28;20212;-86
2022/07/07 06:05:48;;;;;;;3.13;1.60;;;15.70;99.90;;;;;;5118675;28;20172;-87
2022/07/07 06:08:14;;;;;;;6.03;1.80;;;;;;;;;;5119036;28;20274;-88
2022/07/07 06:10:40;;;;;;;1.80;1.47;;;15.80;99.90;;;;;;5119382;28;20198;-87
2022/07/07 06:13:06;;;;;;;1.50;1.23;;;15.50;99.90;;;;;;5121024;28;20200;-87
2022/07/07 06:15:35;;;;;;;2.70;1.33;;;;;;;;;;5120035;28;20206;-87
2022/07/07 06:18:04;;;;;;;3.27;1.70;;;15.70;99.90;;;;;;5121008;28;20529;-87
2022/07/07 06:20:32;;;;;;;1.87;1.40;;;15.90;99.90;;;;;;5121477;28;20179;-87
2022/07/07 06:22:58;;;;;;;5.47;1.50;;;15.80;99.90;;;;;;5130198;28;20179;-86
2022/07/07 06:25:26;;;;;;;2.97;1.70;;;;;;;;;;5119379;28;20184;-87
2022/07/07 06:27:52;;;;;;;4.90;1.50;;;15.60;99.90;;;;;;5118792;28;20183;-86
2022/07/07 06:30:18;;;;;;;2.60;1.50;;;;;;;;;;5119102;28;20206;-87
2022/07/07 06:32:43;;;;;;;3.77;1.80;;;15.90;99.90;;;;;;5118419;28;20274;-87
2022/07/07 06:35:10;;;;;;;3.03;1.50;;;;;;;;;;5119118;28;20175;-87
2022/07/07 06:37:35;;;;;;;4.03;1.60;;;15.90;99.90;;;;;;5118331;28;20211;-87
2022/07/07 06:40:01;;;;;;;6.83;1.33;;;15.90;99.90;;;;;;5118894;28;20167;-87
2022/07/07 06:42:27;;;;;;;1.73;1.50;;;;;;;;;;5119240;28;20219;-87
2022/07/07 06:44:53;;;;;;;2.37;1.60;;;;;;;;;;5119513;28;20191;-87
2022/07/07 06:47:19;;;;;;;3.70;1.77;;;;;;;;;;5119735;28;20175;-87
2022/07/07 06:49:45;;;;;;;1.67;1.40;;;16.10;99.90;;;;;;5121001;28;20173;-86
2022/07/07 06:52:12;;;;;;;3.00;1.77;;;;;;;;;;5119670;28;20201;-87
2022/07/07 06:54:38;;;;;;;2.27;1.50;;;;;;;;;;5119753;28;20191;-87
2022/07/07 06:57:08;;;;;;;3.43;1.60;;;16.40;99.90;;;;;;5120667;28;20269;-86
2022/07/07 06:59:35;;;;;;;1.70;1.37;;;16.10;99.90;;;;;;5120078;28;20242;-87
2022/07/07 07:02:01;;;;;;;3.97;1.47;;;16.20;99.90;;;;;;5118994;28;20258;-87
2022/07/07 07:04:27;;;;;;;2.27;1.53;;;;;;;;;;5120528;28;20244;-87
2022/07/07 07:06:53;;;;;;;5.57;1.67;;;16.30;99.90;;;;;;5120876;28;20276;-87
2022/07/07 07:09:19;;;;;;;3.77;1.63;;;;;;;;;;5122234;28;20176;-87
2022/07/07 07:11:45;;;;;;;1.77;1.37;;;16.40;99.90;;;;;;5121088;28;20691;-87
2022/07/07 07:14:13;;;;;;;2.30;1.50;;;16.40;99.90;;;;;;5121628;28;20188;-87
2022/07/07 07:16:39;;;;;;;1.97;1.73;;;16.40;99.90;;;;;;5121761;28;20224;-87
2022/07/07 07:19:05;;;;;;;4.23;1.87;;;16.30;99.90;;;;;;5120670;28;20188;-87
2022/07/07 07:21:31;;;;;;;3.10;1.77;;;;;;;;;;5122448;28;20207;-87
2022/07/07 07:23:57;;;;;;;3.33;1.40;;;;;;;;;;5122746;28;20169;-87
2022/07/07 07:26:23;;;;;;;1.43;1.17;;;16.50;99.90;;;;;;5121694;28;20185;-87
2022/07/07 07:28:49;;;;;;;3.67;1.67;;;;;;;;;;5124482;28;20194;-87
2022/07/07 07:31:15;;;;;;;2.50;1.50;;;;;;;;;;5128350;28;20173;-87
2022/07/07 07:33:41;;;;;;;3.13;1.40;;;;;;;;;;5138481;28;20233;-85
2022/07/07 07:36:10;;;;;;;3.90;1.43;;;17.10;99.90;;;;;;5141695;28;20219;-87
2022/07/07 07:38:40;;;;;;;3.10;1.43;;;17.00;99.90;;;;;;5130134;28;20283;-87
2022/07/07 07:41:07;;;;;;;2.90;1.50;;;;;;;;;;5122438;28;20256;-87
2022/07/07 07:43:33;;;;;;;2.27;1.60;;;17.30;99.90;;;;;;5121711;28;20177;-87
2022/07/07 07:45:59;;;;;;;2.60;1.57;;;17.20;99.90;;;;;;5124340;28;20203;-87
2022/07/07 07:48:25;;;;;;;4.33;1.50;;;;;;;;;;5124443;28;20578;-87
2022/07/07 07:50:51;;;;;;;2.00;1.40;;;;;;;;;;5124119;28;20179;-87
2022/07/07 07:53:17;;;;;;;8.87;1.50;;;;;;;;;;5124532;28;20196;-87
2022/07/07 07:55:44;;;;;;;2.83;1.93;;;17.30;99.90;;;;;;5124047;28;20184;-88
2022/07/07 07:58:10;;;;;;;4.00;1.60;;;17.30;99.90;;;;;;5124653;28;20244;-87
2022/07/07 08:00:36;;;;;;;3.83;1.33;;;17.40;99.90;;;;;;5127776;28;20183;-87
2022/07/07 08:03:02;;;;;;;4.73;1.33;;;17.40;99.90;;;;;;5119737;28;20288;-87
2022/07/07 08:05:29;;;;;;;2.03;1.40;;;17.30;99.90;;;;;;5120163;28;20172;-87
2022/07/07 08:07:55;;;;;;;2.43;1.60;;;17.50;99.90;;;;;;5120335;28;20197;-87
2022/07/07 08:10:21;;;;;;;3.20;1.83;;;17.50;99.90;;;;;;5120391;28;20176;-87
2022/07/07 08:12:47;;;;;;;4.40;1.40;;;;;;;;;;5122327;28;20191;-87
2022/07/07 08:15:14;;;;;;;5.53;1.50;;;17.60;99.90;;;;;;5120327;28;20667;-87
2022/07/07 08:17:40;;;;;;;2.00;1.60;;;17.90;99.90;;;;;;5121820;28;20213;-86
2022/07/07 08:20:07;;;;;;;3.97;1.90;;;17.90;99.90;;;;;;5121438;28;20188;-87
2022/07/07 08:22:33;;;;;;;3.73;1.70;;;18.10;99.90;;;;;;5121303;28;20212;-87
2022/07/07 08:24:58;;;;;;;2.83;1.40;;;18.10;99.90;;;;;;5121840;28;20176;-87
2022/07/07 08:27:25;;;;;;;4.53;1.63;;;18.30;99.90;;;;;;5122111;28;20189;-87
2022/07/07 08:29:51;;;;;;;5.93;1.80;;;;;;;;;;5123418;28;20181;-87
2022/07/07 08:32:17;;;;;;;4.27;1.97;;;18.30;99.90;;;;;;5121867;28;20229;-87
2022/07/07 08:34:43;;;;;;;5.30;1.90;;;18.10;99.90;;;;;;5121694;28;20182;-88
2022/07/07 08:37:10;;;;;;;2.47;1.83;;;18.20;99.90;;;;;;5122647;28;20179;-86
2022/07/07 08:39:36;;;;;;;7.17;1.83;;;18.20;99.90;;;;;;5120917;28;20189;-87
2022/07/07 08:42:02;;;;;;;6.73;2.03;;;18.80;99.90;;;;;;5121332;28;20222;-88
2022/07/07 08:44:28;;;;;;;2.23;1.50;;;18.80;99.90;;;;;;5121635;28;20174;-88
2022/07/07 08:46:54;;;;;;;4.50;1.73;;;;;;;;;;5120735;28;20182;-87
2022/07/07 08:49:20;;;;;;;4.70;2.13;;;18.90;99.90;;;;;;5124907;28;20179;-87
2022/07/07 08:51:46;;;;;;;7.07;2.57;;;;;;;;;;5120851;28;20198;-87
2022/07/07 08:54:13;;;;;;;3.07;1.83;;;18.70;99.90;;;;;;5121253;28;20206;-87
2022/07/07 08:56:41;;;;;;;2.43;1.97;;;18.60;99.90;;;;;;5121754;28;20524;-87
2022/07/07 08:59:08;;;;;;;2.60;1.73;;;18.50;99.90;;;;;;5120613;28;20640;-88
2022/07/07 09:01:35;;;;;;;3.57;1.70;;;18.70;99.90;;;;;;5119823;28;20217;-88
2022/07/07 09:04:04;;;;;;;4.03;2.10;;;18.60;99.90;;;;;;5120274;28;20317;-87
2022/07/07 09:06:30;;;;;;;3.63;1.70;;;18.70;99.90;;;;;;5121790;28;20202;-88
2022/07/07 09:08:57;;;;;;;3.60;1.70;;;18.70;99.90;;;;;;5128286;28;20206;-87
2022/07/07 09:11:30;;;;;;;3.87;1.73;;;19.00;99.90;;;;;;5140143;28;20171;-87
2022/07/07 09:14:15;;;;;;;4.00;1.60;;;19.10;99.90;;;;;;5133940;28;20205;-87
2022/07/07 09:16:42;;;;;;;2.10;1.73;;;18.90;99.90;;;;;;5120000;28;20187;-87
2022/07/07 09:19:19;;;;;;;3.53;1.77;;;18.50;99.90;;;;;;5118791;28;20211;-87
2022/07/07 09:21:45;;;;;;;2.47;1.83;;;18.40;99.90;;;;;;5121176;28;20214;-87
2022/07/07 09:24:11;;;;;;;6.30;2.20;;;18.30;99.90;;;;;;5120827;28;20181;-87
2022/07/07 09:26:46;;;;;;;5.70;1.73;;;18.50;99.90;;;;;;5120864;28;20171;-87
2022/07/07 09:29:14;;;;;;;5.13;1.80;;;18.30;99.90;;;;;;5121944;28;20241;-86
2022/07/07 09:31:58;;;;;;;2.83;1.70;;;18.50;99.90;;;;;;5123396;28;20208;-87
2022/07/07 09:34:36;;;;;;;10.00;1.70;;;18.70;99.90;;;;;;5129162;28;20524;-87
2022/07/07 09:39:51;;;;;;;2.53;1.73;;;18.70;99.90;;;;;;5120736;28;20196;-87
2022/07/07 09:42:20;;;;;;;4.67;1.60;;;18.80;99.90;;;;;;5120202;28;20301;-86
2022/07/07 09:45:10;;;;;;;4.33;1.73;;;18.70;99.90;;;;;;5120029;28;20186;-87
2022/07/07 09:47:36;;;;;;;3.43;1.90;;;18.70;99.90;;;;;;5111357;28;20193;-87
2022/07/07 09:50:02;;;;;;;5.70;1.77;;;18.70;99.90;;;;;;5118143;28;20237;-87
2022/07/07 09:52:29;;;;;;;1.93;1.50;;;18.90;99.90;;;;;;5120165;28;20561;-88
2022/07/07 09:54:56;;;;;;;3.77;1.87;;;18.90;99.90;;;;;;5118348;28;20204;-87
2022/07/07 09:57:22;;;;;;;3.97;2.00;;;;;;;;;;5118189;28;20187;-87
2022/07/07 09:59:48;;;;;;;2.93;1.50;;;18.90;99.90;;;;;;5118724;28;20207;-87
2022/07/07 10:02:25;;;;;;;2.77;1.50;;;19.00;99.90;;;;;;5118212;28;20218;-87
2022/07/07 10:04:57;;;;;;;4.80;1.47;;;19.00;99.90;;;;;;5118537;28;20261;-87
2022/07/07 10:07:30;;;;;;;2.03;1.40;;;18.90;99.90;;;;;;5119652;28;20164;-87
2022/07/07 10:10:00;;;;;;;1.73;1.10;;;18.80;99.90;;;;;;5118674;28;20549;-87
2022/07/07 10:12:28;;;;;;;3.40;1.30;;;18.90;99.90;;;;;;5119274;28;20242;-87
2022/07/07 10:14:59;;;;;;;2.83;1.23;;;18.90;99.90;;;;;;5118704;28;20193;-87
2022/07/07 10:17:28;;;;;;;2.83;1.43;;;18.90;99.90;;;;;;5117788;28;20179;-87
2022/07/07 10:19:55;;;;;;;3.33;1.30;;;18.80;99.90;;;;;;5118257;28;20193;-87
2022/07/07 10:22:26;;;;;;;3.40;1.53;;;18.80;99.90;;;;;;5119082;28;20209;-87
2022/07/07 10:24:56;;;;;;;2.83;1.27;;;18.70;99.90;;;;;;5119196;28;20221;-87
2022/07/07 10:27:24;;;;;;;4.77;1.50;;;18.70;99.90;;;;;;5120094;28;20619;-87
2022/07/07 10:29:58;;;;;;;3.47;1.43;;;18.60;99.90;;;;;;5118913;28;20194;-87
2022/07/07 10:32:59;;;;;;;2.77;1.43;;;18.70;99.90;;;;;;5121559;28;20194;-87
2022/07/07 10:35:25;;;;;;;2.33;1.30;;;18.80;99.90;;;;;;5058792;28;20674;-87
2022/07/07 10:37:56;;;;;;;2.27;1.30;;;19.00;99.90;;;;;;5104907;28;20206;-87
2022/07/07 10:40:25;;;;;;;3.77;1.70;;;19.20;99.90;;;;;;5122753;28;20169;-86
2022/07/07 10:43:10;;;;;;;2.60;1.40;;;19.30;99.90;;;;;;5124677;28;20570;-87
2022/07/07 10:45:46;;;;;;;4.43;1.70;;;19.40;99.90;;;;;;5132083;28;20164;-86
2022/07/07 10:48:48;;;;;;;2.97;1.70;;;19.50;99.90;;;;;;5130636;28;20199;-87
2022/07/07 10:51:16;;;;;;;3.90;1.60;;;19.60;99.90;;;;;;5117291;28;20183;-87
2022/07/07 10:54:03;;;;;;;3.93;1.77;;;19.40;99.90;;;;;;5119339;28;20174;-87
2022/07/07 10:56:53;;;;;;;3.67;1.60;;;19.20;99.90;;;;;;5120004;28;20182;-87
2022/07/07 10:59:20;;;;;;;2.37;1.80;;;19.10;99.90;;;;;;5107585;28;20224;-85
2022/07/07 11:02:01;;;;;;;2.70;1.70;;;18.90;99.90;;;;;;5119318;28;20719;-87
2022/07/07 11:04:42;;;;;;;2.13;1.70;;;18.70;99.90;;;;;;5123897;28;20183;-87
2022/07/07 11:07:26;;;;;;;3.00;1.70;;;18.80;99.90;;;;;;5123474;28;20178;-87
2022/07/07 11:10:05;;;;;;;1.77;1.40;;;18.70;99.90;;;;;;5129357;28;20208;-87
2022/07/07 11:12:39;;;;;;;4.90;1.53;;;18.80;99.90;;;;;;5121491;28;20540;-87
2022/07/07 11:15:23;;;;;;;2.57;1.83;;;18.80;99.90;;;;;;5122483;28;20541;-87
2022/07/07 11:18:09;;;;;;;2.67;1.60;;;18.80;99.90;;;;;;5124895;28;20154;-86
2022/07/07 11:20:35;;;;;;;5.80;1.60;;;18.90;99.90;;;;;;5122686;28;20177;-86
2022/07/07 11:23:12;;;;;;;2.90;1.73;;;19.00;99.90;;;;;;5122684;28;20216;-87
2022/07/07 11:25:39;;;;;;;4.97;1.90;;;19.20;99.90;;;;;;5123317;28;20541;-87
2022/07/07 11:28:07;;;;;;;2.87;1.63;;;19.30;99.90;;;;;;5123636;28;20531;-87
2022/07/07 11:30:33;;;;;;;5.93;1.70;;;19.50;99.90;;;;;;5124183;28;20185;-87
2022/07/07 11:33:00;;;;;;;5.87;1.87;;;19.50;99.90;;;;;;5123158;28;20203;-87
2022/07/07 11:35:36;;;;;;;2.60;1.70;;;19.60;99.90;;;;;;5122712;28;20207;-87
2022/07/07 11:38:03;;;;;;;2.00;1.40;;;19.60;99.90;;;;;;5122999;28;20198;-87
2022/07/07 11:40:30;;;;;;;3.27;1.90;;;19.60;99.90;;;;;;5126039;28;20636;-86
2022/07/07 11:43:00;;;;;;;2.90;1.40;;;19.60;99.90;;;;;;5122812;28;20222;-87
2022/07/07 11:45:28;;;;;;;2.67;1.60;;;19.60;99.90;;;;;;5122010;28;20271;-87
2022/07/07 11:48:03;;;;;;;3.53;1.70;;;19.30;99.90;;;;;;5121528;28;20174;-87
2022/07/07 11:50:32;;;;;;;3.97;1.70;;;;;;;;;;5120129;28;20177;-87
2022/07/07 11:53:00;;;;;;;4.13;1.97;;;19.10;99.90;;;;;;5120910;28;20206;-88
2022/07/07 11:55:27;;;;;;;3.40;1.50;;;18.90;99.90;;;;;;5120255;28;20253;-87
2022/07/07 11:57:55;;;;;;;3.67;2.23;;;18.90;99.90;;;;;;5121429;28;20217;-88
2022/07/07 12:00:25;;;;;;;3.30;1.80;;;18.80;99.90;;;;;;5122700;28;20184;-87
2022/07/07 12:02:53;;;;;;;3.10;1.63;;;18.70;99.90;;;;;;5123106;28;20214;-87
2022/07/07 12:05:24;;;;;;;3.17;1.90;;;18.60;99.90;;;;;;5123704;28;20170;-88
2022/07/07 12:07:55;;;;;;;3.43;1.80;;;18.60;99.90;;;;;;5124265;28;20179;-88
2022/07/07 12:10:24;;;;;;;4.53;1.60;;;18.60;99.90;;;;;;5122202;28;20316;-87
2022/07/07 12:13:01;;;;;;;3.17;1.60;;;18.70;99.90;;;;;;5124101;28;20228;-87
2022/07/07 12:15:38;;;;;;;3.90;1.70;;;18.70;99.90;;;;;;5121764;28;20189;-88
2022/07/07 12:18:05;;;;;;;4.80;1.63;;;18.90;99.90;;;;;;5133195;28;20180;-87
2022/07/07 12:20:31;;;;;;;2.40;1.57;;;19.10;99.90;;;;;;5122910;28;20240;-87
2022/07/07 12:22:59;;;;;;;3.63;1.77;;;19.60;99.90;;;;;;5140717;28;20201;-87
2022/07/07 12:25:27;;;;;;;3.37;1.67;;;19.60;99.90;;;;;;5140505;28;20189;-88
2022/07/07 12:28:07;;;;;;;2.83;1.60;;;19.80;99.90;;;;;;5123512;28;20185;-87
2022/07/07 12:30:35;;;;;;;5.00;1.87;;;20.10;99.90;;;;;;5122940;28;20588;-87
2022/07/07 12:33:01;;;;;;;2.47;1.57;;;20.30;99.90;;;;;;5121153;28;20200;-87
2022/07/07 12:35:34;;;;;;;5.57;1.73;;;20.20;99.90;;;;;;5124561;28;20190;-87
2022/07/07 12:38:03;;;;;;;4.17;1.77;;;20.00;99.90;;;;;;5121271;28;20666;-87
2022/07/07 12:40:30;;;;;;;2.23;1.50;;;19.80;99.90;;;;;;5120834;28;20186;-87
2022/07/07 12:42:57;;;;;;;6.57;1.70;;;19.60;99.90;;;;;;5124178;28;20227;-87
2022/07/07 12:45:23;;;;;;;2.93;1.63;;;;;;;;;;5129652;28;20190;-86
2022/07/07 12:47:54;;;;;;;1.90;1.70;;;19.20;99.90;;;;;;5121277;28;20277;-87
2022/07/07 12:50:21;;;;;;;2.60;1.70;;;19.10;99.90;;;;;;5121395;28;20175;-87
2022/07/07 12:52:55;;;;;;;3.90;1.53;;;19.10;99.90;;;;;;5121380;28;20710;-87
2022/07/07 12:55:21;;;;;;;3.57;1.80;;;19.10;99.90;;;;;;5121765;28;20278;-88
2022/07/07 12:57:47;;;;;;;3.00;1.73;;;;;;;;;;5120194;28;20218;-87
2022/07/07 13:00:24;;;;;;;3.43;1.50;;;19.10;99.90;;;;;;5122011;28;20180;-87
2022/07/07 13:02:50;;;;;;;4.03;1.70;;;19.10;99.90;;;;;;5120616;28;20210;-88
2022/07/07 13:05:16;;;;;;;7.17;1.40;;;19.00;99.90;;;;;;5120560;28;20194;-88
2022/07/07 13:07:42;;;;;;;3.87;1.50;;;;;;;;;;5120234;28;20180;-88
2022/07/07 13:10:07;;;;;;;3.87;2.00;;;18.90;99.90;;;;;;5121097;27;20189;-88
2022/07/07 13:12:34;;;;;;;2.07;1.70;;;18.70;99.90;;;;;;5120421;28;20199;-88
2022/07/07 13:15:00;;;;;;;2.03;1.47;;;18.70;99.90;;;;;;5120206;28;20217;-88
2022/07/07 13:17:26;;;;;;;6.83;1.70;;;;;;;;;;5125399;28;20179;-88
2022/07/07 13:19:52;;;;;;;3.10;1.77;;;18.50;99.90;;;;;;5130490;28;20182;-88
2022/07/07 13:22:18;;;;;;;1.70;1.40;;;;;;;;;;5122346;28;20214;-87
2022/07/07 13:24:44;;;;;;;2.90;1.70;;;;;;;;;;5119898;28;20185;-87
2022/07/07 13:27:10;;;;;;;2.13;1.30;;;;;;;;;;5119283;28;20273;-87
2022/07/07 13:29:35;;;;;;;4.33;1.70;;;18.30;99.90;;;;;;5121682;28;20174;-87